createdAt,value
2022-12-25T00:01:13.485Z,72.99
2022-12-25T00:03:39.964Z,72.99
2022-12-25T00:06:07.747Z,74.92
2022-12-25T00:08:34.148Z,74.03
2022-12-25T00:11:04.817Z,74.68
2022-12-25T00:13:31.340Z,75.67
2022-12-25T00:16:01.209Z,74.44
2022-12-25T00:18:32.778Z,73.72
2022-12-25T00:21:03.619Z,74.06
2022-12-25T00:23:30.756Z,72.66
2022-12-25T00:25:57.212Z,72.67
2022-12-25T00:28:35.261Z,74.15
2022-12-25T00:31:13.997Z,80.44
2022-12-25T00:33:50.853Z,77.86
2022-12-25T00:36:17.283Z,75.42
2022-12-25T00:38:45.693Z,72.82
2022-12-25T00:41:32.478Z,72.66
2022-12-25T00:44:10.769Z,73.25
2022-12-25T00:46:54.311Z,75.48
2022-12-25T00:49:20.856Z,76.37
2022-12-25T01:03:15.872Z,70.90
2022-12-25T01:05:42.394Z,71.39
2022-12-25T01:08:26.306Z,71.97
2022-12-25T01:10:53.159Z,70.87
2022-12-25T01:18:49.764Z,70.59
2022-12-25T01:21:16.220Z,70.79
2022-12-25T01:24:02.957Z,70.92
2022-12-25T01:34:53.880Z,70.68
2022-12-25T01:48:24.520Z,72.18
2022-12-25T02:01:52.223Z,72.00
2022-12-25T02:04:22.845Z,71.09
2022-12-25T02:06:51.073Z,71.70
2022-12-25T02:12:04.411Z,71.21
2022-12-25T02:17:16.762Z,71.98
2022-12-25T02:33:25.230Z,71.95
2022-12-25T02:38:49.537Z,70.78
2022-12-25T02:46:46.956Z,71.21
2022-12-25T02:49:15.822Z,71.92
2022-12-25T03:02:40.614Z,73.52
2022-12-25T03:05:07.537Z,75.19
2022-12-25T03:07:34.190Z,77.27
2022-12-25T03:10:07.534Z,79.88
2022-12-25T03:13:02.257Z,77.75
2022-12-25T03:18:16.759Z,78.13
2022-12-25T03:20:45.219Z,77.04
2022-12-25T03:24:00.545Z,75.31
2022-12-25T03:31:29.771Z,77.51
2022-12-25T03:33:58.487Z,76.57
2022-12-25T03:36:35.025Z,77.83
2022-12-25T03:41:58.991Z,77.51
2022-12-25T03:44:33.032Z,82.45
2022-12-25T03:47:09.201Z,79.04
2022-12-25T03:49:35.584Z,80.10
2022-12-25T03:52:02.018Z,80.94
2022-12-25T03:54:34.874Z,76.64
2022-12-25T03:57:08.643Z,77.12
2022-12-25T03:59:51.529Z,76.88
2022-12-25T04:02:18.049Z,79.60
2022-12-25T04:04:44.833Z,77.84
2022-12-25T04:07:23.258Z,80.16
2022-12-25T04:09:51.515Z,82.20
2022-12-25T04:12:23.184Z,84.78
2022-12-25T04:15:03.655Z,80.62
2022-12-25T04:17:30.117Z,81.97
2022-12-25T04:19:56.619Z,82.50
2022-12-25T04:22:25.324Z,82.11
2022-12-25T04:27:47.323Z,85.12
2022-12-25T04:30:16.913Z,85.01
2022-12-25T04:32:43.391Z,85.97
2022-12-25T04:35:09.799Z,86.99
2022-12-25T04:37:43.563Z,82.51
2022-12-25T04:40:12.837Z,81.86
2022-12-25T04:42:44.800Z,84.54
2022-12-25T04:45:26.172Z,85.43
2022-12-25T04:47:52.670Z,82.93
2022-12-25T04:50:31.068Z,84.27
2022-12-25T04:53:11.809Z,85.56
2022-12-25T04:55:46.664Z,83.51
2022-12-25T04:58:35.283Z,86.25
2022-12-25T05:01:01.703Z,86.10
2022-12-25T05:03:28.144Z,88.38
2022-12-25T05:05:54.570Z,87.53
2022-12-25T05:08:25.108Z,89.41
2022-12-25T05:10:51.476Z,90.18
2022-12-25T05:13:31.934Z,87.00
2022-12-25T05:15:59.017Z,89.54
2022-12-25T05:18:25.464Z,88.89
2022-12-25T05:21:11.195Z,88.21
2022-12-25T05:23:55.559Z,87.25
2022-12-25T05:29:27.568Z,87.48
2022-12-25T05:31:54.077Z,85.36
2022-12-25T05:34:24.255Z,86.10
2022-12-25T05:42:13.114Z,80.73
2022-12-25T05:44:39.555Z,79.22
2022-12-25T05:47:09.238Z,77.41
2022-12-25T05:52:51.765Z,83.41
2022-12-25T05:55:39.552Z,79.44
2022-12-25T07:00:13.462Z,75.21
2022-12-25T07:02:42.759Z,76.25
2022-12-25T07:10:51.684Z,76.26
2022-12-25T07:13:22.486Z,75.26
2022-12-25T07:18:33.890Z,73.22
2022-12-25T07:29:15.951Z,72.16
2022-12-25T07:31:42.884Z,72.42
2022-12-25T07:42:33.818Z,72.39
2022-12-25T07:45:22.447Z,73.50
2022-12-25T08:26:58.494Z,72.85
2022-12-25T08:35:13.360Z,72.63
2022-12-25T08:37:42.657Z,72.67
2022-12-25T08:40:12.817Z,73.16
2022-12-25T08:42:39.484Z,74.73
2022-12-25T08:56:06.152Z,73.17
2022-12-25T08:58:32.706Z,73.02
2022-12-25T09:03:48.428Z,73.66
2022-12-25T09:06:20.675Z,74.54
2022-12-25T09:08:58.088Z,74.84
2022-12-25T09:11:24.911Z,72.99
2022-12-25T09:13:55.547Z,72.22
2022-12-25T09:27:19.870Z,71.72
2022-12-25T09:32:57.256Z,73.37
2022-12-25T09:55:24.108Z,73.21
2022-12-25T10:02:16.507Z,74.97
2022-12-25T10:09:02.059Z,76.54
2022-12-25T10:11:28.579Z,77.33
2022-12-25T10:13:59.210Z,76.67
2022-12-25T10:19:25.681Z,74.33
2022-12-25T10:21:55.871Z,70.92
2022-12-25T10:24:35.571Z,71.68
2022-12-25T10:27:05.074Z,72.55
2022-12-25T10:38:25.029Z,72.37
2022-12-25T10:40:55.953Z,72.64
2022-12-25T10:43:24.018Z,72.09
2022-12-25T10:51:33.352Z,72.26
2022-12-25T10:54:02.529Z,70.93
2022-12-25T10:56:30.551Z,69.65
2022-12-25T10:58:59.224Z,70.12
2022-12-25T11:07:03.751Z,71.42
2022-12-25T11:09:30.196Z,70.76
2022-12-25T11:11:58.856Z,70.94
2022-12-25T11:22:41.907Z,74.42
2022-12-25T11:25:31.231Z,73.40
2022-12-25T11:28:29.102Z,73.02
2022-12-25T11:33:39.529Z,71.23
2022-12-25T11:36:09.148Z,70.90
2022-12-25T11:38:39.840Z,71.43
2022-12-25T11:41:14.978Z,72.46
2022-12-25T11:46:46.027Z,73.53
2022-12-25T11:46:56.722Z,69.98
2022-12-25T11:49:13.789Z,78.47
2022-12-25T11:51:42.377Z,81.33
2022-12-25T11:54:08.815Z,85.27
2022-12-25T11:56:35.382Z,86.57
2022-12-25T12:07:22.468Z,78.90
2022-12-25T12:09:51.731Z,79.06
2022-12-25T12:17:45.647Z,74.38
2022-12-25T12:20:41.359Z,76.17
2022-12-25T12:23:08.788Z,76.35
2022-12-25T12:25:35.358Z,76.74
2022-12-25T12:28:05.848Z,76.83
2022-12-25T12:30:36.418Z,81.79
2022-12-25T12:33:16.569Z,80.64
2022-12-25T12:35:42.925Z,78.95
2022-12-25T12:38:09.399Z,82.10
2022-12-25T12:40:37.579Z,77.39
2022-12-25T12:51:34.316Z,78.36
2022-12-25T12:54:00.825Z,81.44
2022-12-25T12:56:27.299Z,82.80
2022-12-25T13:01:53.536Z,79.40
2022-12-25T13:04:29.059Z,77.23
2022-12-25T13:06:59.033Z,76.63
2022-12-25T13:09:28.346Z,75.84
2022-12-25T13:17:35.240Z,76.73
2022-12-25T13:20:02.920Z,78.13
2022-12-25T13:22:29.388Z,76.33
2022-12-25T13:25:06.086Z,76.69
2022-12-25T13:46:48.078Z,71.93
2022-12-25T13:49:24.748Z,73.24
2022-12-25T13:52:00.051Z,72.91
2022-12-25T13:54:31.370Z,72.91
2022-12-25T13:57:00.250Z,73.23
2022-12-25T14:02:25.759Z,73.32
2022-12-25T14:07:49.655Z,76.34
2022-12-25T14:10:18.728Z,74.12
2022-12-25T14:18:12.367Z,73.15
2022-12-25T14:20:41.203Z,73.77
2022-12-25T14:23:15.208Z,78.44
2022-12-25T14:37:21.319Z,71.82
2022-12-25T14:48:06.828Z,76.14
2022-12-25T14:53:28.342Z,73.44
2022-12-25T14:58:36.780Z,74.85
2022-12-25T15:01:17.220Z,72.39
2022-12-25T15:03:43.918Z,76.08
2022-12-25T15:06:17.008Z,77.08
2022-12-25T15:08:43.509Z,76.65
2022-12-25T15:16:49.026Z,75.48
2022-12-25T15:21:59.891Z,80.38
2022-12-25T15:24:26.678Z,78.11
2022-12-25T15:26:53.054Z,76.60
2022-12-25T15:29:44.559Z,74.43
2022-12-25T15:32:09.159Z,75.14
2022-12-25T15:34:35.582Z,76.66
2022-12-25T15:37:01.965Z,75.84
2022-12-25T15:39:37.483Z,75.30
2022-12-25T15:44:44.277Z,79.75
2022-12-25T15:47:10.670Z,79.28
2022-12-25T15:49:39.499Z,79.41
2022-12-25T15:52:06.496Z,76.66
2022-12-25T15:54:39.571Z,76.52
2022-12-25T15:59:49.035Z,75.14
2022-12-25T16:02:15.575Z,74.53
2022-12-25T16:04:44.395Z,73.50
2022-12-25T16:07:12.417Z,73.15
2022-12-25T16:09:40.546Z,71.64
2022-12-25T16:12:08.184Z,71.51
2022-12-25T16:14:39.340Z,70.62
2022-12-25T16:17:08.583Z,70.13
2022-12-25T16:19:37.367Z,71.06
2022-12-25T16:22:08.754Z,70.25
2022-12-25T16:24:48.586Z,71.17
2022-12-25T16:38:10.114Z,73.27
2022-12-25T16:40:42.871Z,77.91
2022-12-25T16:43:23.777Z,78.14
2022-12-25T16:45:56.336Z,77.18
2022-12-25T16:48:23.037Z,73.14
2022-12-25T16:50:51.239Z,73.01
2022-12-25T16:53:20.043Z,74.31
2022-12-25T16:55:46.495Z,75.40
2022-12-25T16:58:13.108Z,73.44
2022-12-25T17:00:42.110Z,72.73
2022-12-25T17:03:14.307Z,72.87
2022-12-25T17:05:41.229Z,71.75
2022-12-25T17:08:09.948Z,71.12
2022-12-25T17:13:35.092Z,71.60
2022-12-25T17:16:03.866Z,73.45
2022-12-25T17:18:32.241Z,72.13
2022-12-25T17:24:01.261Z,77.68
2022-12-25T17:29:26.146Z,81.19
2022-12-25T17:31:56.242Z,82.36
2022-12-25T17:34:22.707Z,84.57
2022-12-25T17:39:27.263Z,79.52
2022-12-25T17:44:41.610Z,77.92
2022-12-25T17:47:10.746Z,78.20
2022-12-25T17:49:37.973Z,81.00
2022-12-25T17:52:04.533Z,81.50
2022-12-25T17:54:30.958Z,79.12
2022-12-25T18:02:24.129Z,76.03
2022-12-25T18:04:54.947Z,77.71
2022-12-25T18:07:21.742Z,75.62
2022-12-25T18:10:04.219Z,74.47
2022-12-25T18:12:42.608Z,74.83
2022-12-25T18:15:08.991Z,74.83
2022-12-25T18:18:44.090Z,74.34
2022-12-25T18:23:15.126Z,77.56
2022-12-25T18:26:10.377Z,76.21
2022-12-25T18:31:19.881Z,78.88
2022-12-25T18:33:59.152Z,78.06
2022-12-25T18:37:33.134Z,82.44
2022-12-25T18:39:49.958Z,86.07
2022-12-25T18:45:14.847Z,81.80
2022-12-25T18:47:44.432Z,80.98
2022-12-25T18:50:10.825Z,83.21
2022-12-25T18:52:51.574Z,80.36
2022-12-25T18:58:21.174Z,75.63
2022-12-25T19:00:49.872Z,75.12
2022-12-25T19:03:21.546Z,75.96
2022-12-25T19:08:41.625Z,76.07
2022-12-25T19:11:14.372Z,74.96
2022-12-25T19:14:02.848Z,75.04
2022-12-25T19:16:47.784Z,76.84
2022-12-25T19:19:17.119Z,79.50
2022-12-25T19:21:46.261Z,79.32
2022-12-25T19:28:33.595Z,78.10
2022-12-25T19:30:12.518Z,79.31
2022-12-25T19:32:39.292Z,77.42
2022-12-25T19:40:25.705Z,78.63
2022-12-25T19:43:00.640Z,76.15
2022-12-25T19:48:14.830Z,76.37
2022-12-25T19:50:44.776Z,75.14
2022-12-25T19:53:24.034Z,79.23
2022-12-25T20:01:32.277Z,76.75
2022-12-25T20:03:58.729Z,78.58
2022-12-25T20:06:25.315Z,83.12
2022-12-25T20:08:51.936Z,81.05
2022-12-25T20:11:19.932Z,79.42
2022-12-25T20:13:53.868Z,78.52
2022-12-25T20:19:20.861Z,79.48
2022-12-25T20:30:12.081Z,75.03
2022-12-25T20:32:50.684Z,74.63
2022-12-25T20:38:01.737Z,74.17
2022-12-25T20:40:52.965Z,75.07
2022-12-25T20:43:23.353Z,76.94
2022-12-25T20:45:50.053Z,75.85
2022-12-25T20:48:17.607Z,78.03
2022-12-25T20:50:51.151Z,77.80
2022-12-25T20:53:24.280Z,78.99
2022-12-25T20:55:59.950Z,80.33
2022-12-25T21:01:21.107Z,76.52
2022-12-25T21:03:52.760Z,76.40
2022-12-25T21:06:26.181Z,75.97
2022-12-25T21:08:52.976Z,77.95
2022-12-25T21:11:30.927Z,80.92
2022-12-25T21:14:00.355Z,80.84
2022-12-25T21:16:32.136Z,82.94
2022-12-25T21:19:02.464Z,86.27
2022-12-25T21:24:25.024Z,78.69
2022-12-25T21:26:59.904Z,78.19
2022-12-25T21:29:31.861Z,76.04
2022-12-25T21:32:02.558Z,75.13
2022-12-25T21:40:01.112Z,76.28
2022-12-25T21:42:27.613Z,78.80
2022-12-25T21:45:00.572Z,83.89
2022-12-25T21:48:00.340Z,81.41
2022-12-25T21:50:21.306Z,78.83
2022-12-25T21:55:37.147Z,75.94
2022-12-25T21:58:12.880Z,76.59
2022-12-25T22:00:45.911Z,77.88
2022-12-25T22:03:30.707Z,79.37
2022-12-25T22:08:43.375Z,76.98
2022-12-25T22:11:09.914Z,79.85
2022-12-25T22:13:45.462Z,84.42
2022-12-25T22:16:25.848Z,80.94
2022-12-25T22:18:52.792Z,81.37
2022-12-25T22:21:19.483Z,81.56
2022-12-25T22:23:45.904Z,83.23
2022-12-25T22:26:18.818Z,83.43
2022-12-25T22:28:48.738Z,81.56
2022-12-25T22:31:15.320Z,79.09
2022-12-25T22:33:41.722Z,77.08
2022-12-25T22:36:08.118Z,78.56
2022-12-25T22:38:34.475Z,78.40
2022-12-25T22:41:00.890Z,80.21
2022-12-25T22:43:50.639Z,79.01
2022-12-25T22:46:13.853Z,77.92
2022-12-25T22:48:40.312Z,78.43
2022-12-25T22:51:06.681Z,81.51
2022-12-25T22:53:33.105Z,80.68
2022-12-25T22:55:59.513Z,77.62
2022-12-25T22:58:25.943Z,78.80
2022-12-25T23:00:52.310Z,82.47
2022-12-25T23:03:18.837Z,84.32
2022-12-25T23:05:45.379Z,80.93
2022-12-25T23:08:11.797Z,81.05
2022-12-25T23:10:38.323Z,79.50
2022-12-25T23:13:04.991Z,79.64
2022-12-25T23:15:31.517Z,79.10
2022-12-25T23:17:58.091Z,83.37
2022-12-25T23:20:27.045Z,80.64
2022-12-25T23:22:53.449Z,79.15
2022-12-25T23:25:23.842Z,78.69
2022-12-25T23:27:50.211Z,78.67
2022-12-25T23:30:18.161Z,80.17
2022-12-25T23:32:44.645Z,78.30
2022-12-25T23:35:11.038Z,80.14
2022-12-25T23:37:37.417Z,81.79
2022-12-25T23:40:03.930Z,79.98
2022-12-25T23:42:32.991Z,81.20
2022-12-25T23:44:59.388Z,81.51
2022-12-25T23:47:25.823Z,80.48
2022-12-25T23:49:52.232Z,80.57
2022-12-25T23:52:18.589Z,80.18
2022-12-25T23:54:45.000Z,83.67
2022-12-25T23:57:15.334Z,80.46
2022-12-25T23:59:41.759Z,81.19
